sensor_id;sensor_type;location;lat;lon;timestamp;P1;durP1;ratioP1;P2;durP2;ratioP2
70951;SDS011;77099;56.074;37.376;2024-03-08T00:00:51;0.70;;;0.10;;
70951;SDS011;77099;56.074;37.376;2024-03-08T00:03:17;1.10;;;0.10;;
70951;SDS011;77099;56.074;37.376;2024-03-08T00:05:42;1.58;;;0.30;;
70951;SDS011;77099;56.074;37.376;2024-03-08T00:08:08;1.58;;;0.20;;
70951;SDS011;77099;56.074;37.376;2024-03-08T00:10:35;2.55;;;0.30;;
70951;SDS011;77099;56.074;37.376;2024-03-08T00:13:01;3.50;;;0.70;;
70951;SDS011;77099;56.074;37.376;2024-03-08T00:15:29;2.45;;;0.38;;
70951;SDS011;77099;56.074;37.376;2024-03-08T00:17:57;1.75;;;0.25;;
70951;SDS011;77099;56.074;37.376;2024-03-08T00:20:23;0.95;;;0.20;;
70951;SDS011;77099;56.074;37.376;2024-03-08T00:22:49;3.73;;;0.40;;
70951;SDS011;77099;56.074;37.376;2024-03-08T00:25:14;1.23;;;0.15;;
70951;SDS011;77099;56.074;37.376;2024-03-08T00:27:42;2.28;;;0.50;;
70951;SDS011;77099;56.074;37.376;2024-03-08T00:30:08;1.00;;;0.20;;
70951;SDS011;77099;56.074;37.376;2024-03-08T00:32:34;2.13;;;0.50;;
70951;SDS011;77099;56.074;37.376;2024-03-08T00:35:01;1.90;;;0.38;;
70951;SDS011;77099;56.074;37.376;2024-03-08T00:37:27;1.50;;;0.23;;
70951;SDS011;77099;56.074;37.376;2024-03-08T00:39:52;2.70;;;0.52;;
70951;SDS011;77099;56.074;37.376;2024-03-08T00:42:19;3.53;;;0.68;;
70951;SDS011;77099;56.074;37.376;2024-03-08T00:44:46;3.20;;;0.20;;
70951;SDS011;77099;56.074;37.376;2024-03-08T00:47:12;1.90;;;0.20;;
70951;SDS011;77099;56.074;37.376;2024-03-08T00:49:37;1.73;;;0.45;;
70951;SDS011;77099;56.074;37.376;2024-03-08T00:52:04;0.83;;;0.10;;
70951;SDS011;77099;56.074;37.376;2024-03-08T00:54:32;0.35;;;0.00;;
70951;SDS011;77099;56.074;37.376;2024-03-08T00:56:58;1.45;;;0.20;;
70951;SDS011;77099;56.074;37.376;2024-03-08T00:59:25;1.23;;;0.22;;
70951;SDS011;77099;56.074;37.376;2024-03-08T01:01:51;0.37;;;0.13;;
70951;SDS011;77099;56.074;37.376;2024-03-08T01:04:16;0.52;;;0.10;;
70951;SDS011;77099;56.074;37.376;2024-03-08T01:06:43;2.30;;;0.30;;
70951;SDS011;77099;56.074;37.376;2024-03-08T01:09:12;0.50;;;0.10;;
70951;SDS011;77099;56.074;37.376;2024-03-08T01:11:38;0.73;;;0.10;;
70951;SDS011;77099;56.074;37.376;2024-03-08T01:14:05;1.60;;;0.25;;
70951;SDS011;77099;56.074;37.376;2024-03-08T01:16:31;1.67;;;0.10;;
70951;SDS011;77099;56.074;37.376;2024-03-08T01:18:58;1.15;;;0.10;;
70951;SDS011;77099;56.074;37.376;2024-03-08T01:21:24;0.55;;;0.10;;
70951;SDS011;77099;56.074;37.376;2024-03-08T01:23:49;0.93;;;0.30;;
70951;SDS011;77099;56.074;37.376;2024-03-08T01:26:15;1.67;;;0.20;;
70951;SDS011;77099;56.074;37.376;2024-03-08T01:28:41;1.13;;;0.17;;
70951;SDS011;77099;56.074;37.376;2024-03-08T01:31:07;0.50;;;0.10;;
70951;SDS011;77099;56.074;37.376;2024-03-08T01:33:33;1.20;;;0.10;;
70951;SDS011;77099;56.074;37.376;2024-03-08T01:35:58;0.60;;;0.10;;
70951;SDS011;77099;56.074;37.376;2024-03-08T01:38:24;0.30;;;0.00;;
70951;SDS011;77099;56.074;37.376;2024-03-08T01:40:50;1.20;;;0.37;;
70951;SDS011;77099;56.074;37.376;2024-03-08T01:43:20;0.65;;;0.28;;
70951;SDS011;77099;56.074;37.376;2024-03-08T01:45:47;0.77;;;0.20;;
70951;SDS011;77099;56.074;37.376;2024-03-08T01:48:14;1.00;;;0.10;;
70951;SDS011;77099;56.074;37.376;2024-03-08T01:50:40;0.50;;;0.10;;
70951;SDS011;77099;56.074;37.376;2024-03-08T01:53:07;0.67;;;0.00;;
70951;SDS011;77099;56.074;37.376;2024-03-08T01:55:35;0.52;;;0.00;;
70951;SDS011;77099;56.074;37.376;2024-03-08T01:58:03;0.20;;;0.00;;
70951;SDS011;77099;56.074;37.376;2024-03-08T02:00:30;0.20;;;0.00;;
70951;SDS011;77099;56.074;37.376;2024-03-08T02:02:58;1.27;;;0.20;;
70951;SDS011;77099;56.074;37.376;2024-03-08T02:05:24;0.37;;;0.10;;
70951;SDS011;77099;56.074;37.376;2024-03-08T02:07:50;0.70;;;0.10;;
70951;SDS011;77099;56.074;37.376;2024-03-08T02:10:16;0.70;;;0.20;;
70951;SDS011;77099;56.074;37.376;2024-03-08T02:12:43;0.40;;;0.10;;
70951;SDS011;77099;56.074;37.376;2024-03-08T02:15:09;0.30;;;0.00;;
70951;SDS011;77099;56.074;37.376;2024-03-08T02:17:35;1.35;;;0.10;;
70951;SDS011;77099;56.074;37.376;2024-03-08T02:20:01;1.63;;;0.40;;
70951;SDS011;77099;56.074;37.376;2024-03-08T02:22:29;1.50;;;0.20;;
70951;SDS011;77099;56.074;37.376;2024-03-08T02:24:55;0.43;;;0.10;;
70951;SDS011;77099;56.074;37.376;2024-03-08T02:27:25;1.23;;;0.20;;
70951;SDS011;77099;56.074;37.376;2024-03-08T02:29:52;0.20;;;0.10;;
70951;SDS011;77099;56.074;37.376;2024-03-08T02:32:21;0.05;;;0.00;;
70951;SDS011;77099;56.074;37.376;2024-03-08T02:34:48;0.10;;;0.00;;
70951;SDS011;77099;56.074;37.376;2024-03-08T02:37:15;0.47;;;0.10;;
70951;SDS011;77099;56.074;37.376;2024-03-08T02:39:41;1.17;;;0.10;;
70951;SDS011;77099;56.074;37.376;2024-03-08T02:42:07;1.17;;;0.13;;
70951;SDS011;77099;56.074;37.376;2024-03-08T02:44:32;0.28;;;0.00;;
70951;SDS011;77099;56.074;37.376;2024-03-08T02:47:01;0.22;;;0.00;;
70951;SDS011;77099;56.074;37.376;2024-03-08T02:49:27;1.00;;;0.30;;
70951;SDS011;77099;56.074;37.376;2024-03-08T02:51:53;0.10;;;0.00;;
70951;SDS011;77099;56.074;37.376;2024-03-08T02:54:19;0.73;;;0.00;;
70951;SDS011;77099;56.074;37.376;2024-03-08T02:56:46;0.45;;;0.10;;
70951;SDS011;77099;56.074;37.376;2024-03-08T02:59:16;0.63;;;0.08;;
70951;SDS011;77099;56.074;37.376;2024-03-08T03:01:43;0.30;;;0.10;;
70951;SDS011;77099;56.074;37.376;2024-03-08T03:04:09;0.40;;;0.08;;
70951;SDS011;77099;56.074;37.376;2024-03-08T03:06:34;0.73;;;0.10;;
70951;SDS011;77099;56.074;37.376;2024-03-08T03:09:01;0.40;;;0.10;;
70951;SDS011;77099;56.074;37.376;2024-03-08T03:11:27;0.30;;;0.00;;
70951;SDS011;77099;56.074;37.376;2024-03-08T03:13:52;0.43;;;0.03;;
70951;SDS011;77099;56.074;37.376;2024-03-08T03:16:19;0.10;;;0.00;;
70951;SDS011;77099;56.074;37.376;2024-03-08T03:18:45;0.77;;;0.30;;
70951;SDS011;77099;56.074;37.376;2024-03-08T03:21:12;0.75;;;0.00;;
70951;SDS011;77099;56.074;37.376;2024-03-08T03:23:39;0.17;;;0.00;;
70951;SDS011;77099;56.074;37.376;2024-03-08T03:26:10;0.60;;;0.13;;
70951;SDS011;77099;56.074;37.376;2024-03-08T03:28:37;0.80;;;0.13;;
70951;SDS011;77099;56.074;37.376;2024-03-08T03:31:07;0.60;;;0.00;;
70951;SDS011;77099;56.074;37.376;2024-03-08T03:33:33;0.73;;;0.10;;
70951;SDS011;77099;56.074;37.376;2024-03-08T03:36:02;0.35;;;0.10;;
70951;SDS011;77099;56.074;37.376;2024-03-08T03:38:30;0.00;;;0.00;;
70951;SDS011;77099;56.074;37.376;2024-03-08T03:40:56;0.43;;;0.10;;
70951;SDS011;77099;56.074;37.376;2024-03-08T03:43:23;1.08;;;0.10;;
70951;SDS011;77099;56.074;37.376;2024-03-08T03:45:49;0.22;;;0.00;;
70951;SDS011;77099;56.074;37.376;2024-03-08T03:48:14;0.50;;;0.20;;
70951;SDS011;77099;56.074;37.376;2024-03-08T03:50:40;0.70;;;0.20;;
70951;SDS011;77099;56.074;37.376;2024-03-08T03:53:06;0.20;;;0.00;;
70951;SDS011;77099;56.074;37.376;2024-03-08T03:55:35;1.23;;;0.20;;
70951;SDS011;77099;56.074;37.376;2024-03-08T03:58:03;0.90;;;0.10;;
70951;SDS011;77099;56.074;37.376;2024-03-08T04:00:29;1.15;;;0.20;;
70951;SDS011;77099;56.074;37.376;2024-03-08T04:02:55;0.80;;;0.20;;
70951;SDS011;77099;56.074;37.376;2024-03-08T04:05:24;0.50;;;0.10;;
70951;SDS011;77099;56.074;37.376;2024-03-08T04:07:50;0.50;;;0.00;;
70951;SDS011;77099;56.074;37.376;2024-03-08T04:10:15;0.83;;;0.10;;
70951;SDS011;77099;56.074;37.376;2024-03-08T04:12:41;0.50;;;0.10;;
70951;SDS011;77099;56.074;37.376;2024-03-08T04:15:07;0.60;;;0.10;;
70951;SDS011;77099;56.074;37.376;2024-03-08T04:17:34;0.57;;;0.10;;
70951;SDS011;77099;56.074;37.376;2024-03-08T04:20:03;0.30;;;0.00;;
70951;SDS011;77099;56.074;37.376;2024-03-08T04:22:49;0.52;;;0.13;;
70951;SDS011;77099;56.074;37.376;2024-03-08T04:25:14;0.83;;;0.10;;
70951;SDS011;77099;56.074;37.376;2024-03-08T04:27:41;0.38;;;0.10;;
70951;SDS011;77099;56.074;37.376;2024-03-08T04:30:06;0.63;;;0.10;;
70951;SDS011;77099;56.074;37.376;2024-03-08T04:32:33;0.82;;;0.10;;
70951;SDS011;77099;56.074;37.376;2024-03-08T04:34:59;0.65;;;0.20;;
70951;SDS011;77099;56.074;37.376;2024-03-08T04:37:28;0.33;;;0.00;;
70951;SDS011;77099;56.074;37.376;2024-03-08T04:39:57;0.40;;;0.10;;
70951;SDS011;77099;56.074;37.376;2024-03-08T04:42:23;0.57;;;0.10;;
70951;SDS011;77099;56.074;37.376;2024-03-08T04:44:50;0.60;;;0.20;;
70951;SDS011;77099;56.074;37.376;2024-03-08T04:47:16;0.25;;;0.10;;
70951;SDS011;77099;56.074;37.376;2024-03-08T04:49:43;0.57;;;0.00;;
70951;SDS011;77099;56.074;37.376;2024-03-08T04:52:08;0.20;;;0.05;;
70951;SDS011;77099;56.074;37.376;2024-03-08T04:54:34;0.90;;;0.10;;
70951;SDS011;77099;56.074;37.376;2024-03-08T04:57:00;0.30;;;0.00;;
70951;SDS011;77099;56.074;37.376;2024-03-08T04:59:26;0.50;;;0.10;;
70951;SDS011;77099;56.074;37.376;2024-03-08T05:01:52;0.45;;;0.10;;
70951;SDS011;77099;56.074;37.376;2024-03-08T05:04:18;1.27;;;0.30;;
70951;SDS011;77099;56.074;37.376;2024-03-08T05:06:44;0.88;;;0.10;;
70951;SDS011;77099;56.074;37.376;2024-03-08T05:09:09;1.37;;;0.10;;
70951;SDS011;77099;56.074;37.376;2024-03-08T05:11:42;0.65;;;0.10;;
70951;SDS011;77099;56.074;37.376;2024-03-08T05:14:09;0.57;;;0.10;;
70951;SDS011;77099;56.074;37.376;2024-03-08T05:16:35;1.60;;;0.28;;
70951;SDS011;77099;56.074;37.376;2024-03-08T05:19:04;0.40;;;0.00;;
70951;SDS011;77099;56.074;37.376;2024-03-08T05:21:29;1.23;;;0.20;;
70951;SDS011;77099;56.074;37.376;2024-03-08T05:23:55;0.63;;;0.07;;
70951;SDS011;77099;56.074;37.376;2024-03-08T05:26:21;2.63;;;0.32;;
70951;SDS011;77099;56.074;37.376;2024-03-08T05:28:47;0.85;;;0.20;;
70951;SDS011;77099;56.074;37.376;2024-03-08T05:31:20;0.60;;;0.20;;
70951;SDS011;77099;56.074;37.376;2024-03-08T05:33:49;1.65;;;0.17;;
70951;SDS011;77099;56.074;37.376;2024-03-08T05:36:15;1.10;;;0.28;;
70951;SDS011;77099;56.074;37.376;2024-03-08T05:38:44;1.80;;;0.10;;
70951;SDS011;77099;56.074;37.376;2024-03-08T05:41:10;0.30;;;0.10;;
70951;SDS011;77099;56.074;37.376;2024-03-08T05:43:37;1.45;;;0.20;;
70951;SDS011;77099;56.074;37.376;2024-03-08T05:46:04;0.28;;;0.10;;
70951;SDS011;77099;56.074;37.376;2024-03-08T05:48:30;1.02;;;0.10;;
70951;SDS011;77099;56.074;37.376;2024-03-08T05:50:58;0.82;;;0.10;;
70951;SDS011;77099;56.074;37.376;2024-03-08T05:53:24;1.10;;;0.20;;
70951;SDS011;77099;56.074;37.376;2024-03-08T05:55:50;0.28;;;0.08;;
70951;SDS011;77099;56.074;37.376;2024-03-08T05:58:16;0.70;;;0.20;;
70951;SDS011;77099;56.074;37.376;2024-03-08T06:00:41;1.00;;;0.17;;
70951;SDS011;77099;56.074;37.376;2024-03-08T06:03:07;1.23;;;0.10;;
70951;SDS011;77099;56.074;37.376;2024-03-08T06:05:33;0.80;;;0.20;;
70951;SDS011;77099;56.074;37.376;2024-03-08T06:07:58;0.90;;;0.20;;
70951;SDS011;77099;56.074;37.376;2024-03-08T06:10:24;1.13;;;0.25;;
70951;SDS011;77099;56.074;37.376;2024-03-08T06:12:49;0.70;;;0.10;;
70951;SDS011;77099;56.074;37.376;2024-03-08T06:15:16;1.15;;;0.20;;
70951;SDS011;77099;56.074;37.376;2024-03-08T06:17:42;0.47;;;0.10;;
70951;SDS011;77099;56.074;37.376;2024-03-08T06:20:08;1.10;;;0.30;;
70951;SDS011;77099;56.074;37.376;2024-03-08T06:22:41;0.95;;;0.20;;
70951;SDS011;77099;56.074;37.376;2024-03-08T06:25:13;1.23;;;0.20;;
70951;SDS011;77099;56.074;37.376;2024-03-08T06:27:41;0.20;;;0.00;;
70951;SDS011;77099;56.074;37.376;2024-03-08T06:30:08;0.68;;;0.20;;
70951;SDS011;77099;56.074;37.376;2024-03-08T06:32:38;0.55;;;0.10;;
70951;SDS011;77099;56.074;37.376;2024-03-08T06:35:04;0.60;;;0.10;;
70951;SDS011;77099;56.074;37.376;2024-03-08T06:37:35;0.85;;;0.10;;
70951;SDS011;77099;56.074;37.376;2024-03-08T06:40:01;1.13;;;0.30;;
70951;SDS011;77099;56.074;37.376;2024-03-08T06:42:29;1.98;;;0.25;;
70951;SDS011;77099;56.074;37.376;2024-03-08T06:44:58;0.60;;;0.10;;
70951;SDS011;77099;56.074;37.376;2024-03-08T06:47:30;1.00;;;0.10;;
70951;SDS011;77099;56.074;37.376;2024-03-08T06:49:58;1.30;;;0.30;;
70951;SDS011;77099;56.074;37.376;2024-03-08T06:52:24;1.45;;;0.20;;
70951;SDS011;77099;56.074;37.376;2024-03-08T06:54:49;0.50;;;0.13;;
70951;SDS011;77099;56.074;37.376;2024-03-08T06:57:17;1.60;;;0.30;;
70951;SDS011;77099;56.074;37.376;2024-03-08T06:59:47;1.58;;;0.30;;
70951;SDS011;77099;56.074;37.376;2024-03-08T07:02:13;0.45;;;0.10;;
70951;SDS011;77099;56.074;37.376;2024-03-08T07:04:39;0.83;;;0.20;;
70951;SDS011;77099;56.074;37.376;2024-03-08T07:07:05;1.23;;;0.20;;
70951;SDS011;77099;56.074;37.376;2024-03-08T07:09:37;0.85;;;0.10;;
70951;SDS011;77099;56.074;37.376;2024-03-08T07:12:02;1.48;;;0.30;;
70951;SDS011;77099;56.074;37.376;2024-03-08T07:14:29;1.23;;;0.20;;
70951;SDS011;77099;56.074;37.376;2024-03-08T07:16:56;1.80;;;0.40;;
70951;SDS011;77099;56.074;37.376;2024-03-08T07:19:22;2.10;;;0.40;;
70951;SDS011;77099;56.074;37.376;2024-03-08T07:21:47;1.53;;;0.30;;
70951;SDS011;77099;56.074;37.376;2024-03-08T07:24:13;4.00;;;0.30;;
70951;SDS011;77099;56.074;37.376;2024-03-08T07:26:42;2.75;;;0.60;;
70951;SDS011;77099;56.074;37.376;2024-03-08T07:29:08;2.78;;;0.28;;
70951;SDS011;77099;56.074;37.376;2024-03-08T07:31:34;0.33;;;0.10;;
70951;SDS011;77099;56.074;37.376;2024-03-08T07:34:10;1.65;;;0.20;;
70951;SDS011;77099;56.074;37.376;2024-03-08T07:36:36;0.75;;;0.20;;
70951;SDS011;77099;56.074;37.376;2024-03-08T07:39:02;0.87;;;0.20;;
70951;SDS011;77099;56.074;37.376;2024-03-08T07:41:30;1.38;;;0.40;;
70951;SDS011;77099;56.074;37.376;2024-03-08T07:43:56;0.32;;;0.10;;
70951;SDS011;77099;56.074;37.376;2024-03-08T07:46:22;1.27;;;0.13;;
70951;SDS011;77099;56.074;37.376;2024-03-08T07:48:48;0.85;;;0.20;;
70951;SDS011;77099;56.074;37.376;2024-03-08T07:51:16;1.90;;;0.27;;
70951;SDS011;77099;56.074;37.376;2024-03-08T07:53:43;1.02;;;0.20;;
70951;SDS011;77099;56.074;37.376;2024-03-08T07:56:09;1.80;;;0.20;;
70951;SDS011;77099;56.074;37.376;2024-03-08T07:58:38;1.80;;;0.30;;
70951;SDS011;77099;56.074;37.376;2024-03-08T08:01:06;1.33;;;0.43;;
70951;SDS011;77099;56.074;37.376;2024-03-08T08:03:32;1.00;;;0.30;;
70951;SDS011;77099;56.074;37.376;2024-03-08T08:05:57;1.80;;;0.35;;
70951;SDS011;77099;56.074;37.376;2024-03-08T08:08:23;2.03;;;0.20;;
70951;SDS011;77099;56.074;37.376;2024-03-08T08:10:51;1.60;;;0.30;;
70951;SDS011;77099;56.074;37.376;2024-03-08T08:13:17;2.00;;;0.30;;
70951;SDS011;77099;56.074;37.376;2024-03-08T08:15:43;1.93;;;0.30;;
70951;SDS011;77099;56.074;37.376;2024-03-08T08:18:09;1.48;;;0.32;;
70951;SDS011;77099;56.074;37.376;2024-03-08T08:20:35;0.82;;;0.30;;
70951;SDS011;77099;56.074;37.376;2024-03-08T08:23:00;1.47;;;0.23;;
70951;SDS011;77099;56.074;37.376;2024-03-08T08:25:26;2.43;;;0.60;;
70951;SDS011;77099;56.074;37.376;2024-03-08T08:27:52;1.63;;;0.37;;
70951;SDS011;77099;56.074;37.376;2024-03-08T08:30:19;0.77;;;0.15;;
70951;SDS011;77099;56.074;37.376;2024-03-08T08:32:45;1.20;;;0.25;;
70951;SDS011;77099;56.074;37.376;2024-03-08T08:35:12;1.23;;;0.30;;
70951;SDS011;77099;56.074;37.376;2024-03-08T08:37:38;1.58;;;0.30;;
70951;SDS011;77099;56.074;37.376;2024-03-08T08:40:05;2.35;;;0.55;;
70951;SDS011;77099;56.074;37.376;2024-03-08T08:42:35;1.13;;;0.30;;
70951;SDS011;77099;56.074;37.376;2024-03-08T08:45:01;2.05;;;0.43;;
70951;SDS011;77099;56.074;37.376;2024-03-08T08:47:28;2.23;;;0.40;;
70951;SDS011;77099;56.074;37.376;2024-03-08T08:49:53;2.45;;;0.52;;
70951;SDS011;77099;56.074;37.376;2024-03-08T08:52:19;1.77;;;0.50;;
70951;SDS011;77099;56.074;37.376;2024-03-08T08:54:45;1.30;;;0.40;;
70951;SDS011;77099;56.074;37.376;2024-03-08T08:57:10;1.30;;;0.30;;
70951;SDS011;77099;56.074;37.376;2024-03-08T08:59:36;1.60;;;0.32;;
70951;SDS011;77099;56.074;37.376;2024-03-08T09:02:07;2.17;;;0.38;;
70951;SDS011;77099;56.074;37.376;2024-03-08T09:04:34;1.80;;;0.60;;
70951;SDS011;77099;56.074;37.376;2024-03-08T09:07:01;1.88;;;0.40;;
70951;SDS011;77099;56.074;37.376;2024-03-08T09:09:26;1.85;;;0.50;;
70951;SDS011;77099;56.074;37.376;2024-03-08T09:11:52;3.13;;;0.63;;
70951;SDS011;77099;56.074;37.376;2024-03-08T09:14:19;3.05;;;0.80;;
70951;SDS011;77099;56.074;37.376;2024-03-08T09:16:45;2.75;;;0.73;;
70951;SDS011;77099;56.074;37.376;2024-03-08T09:19:12;3.13;;;0.55;;
70951;SDS011;77099;56.074;37.376;2024-03-08T09:21:38;1.65;;;0.47;;
70951;SDS011;77099;56.074;37.376;2024-03-08T09:24:05;2.07;;;0.47;;
70951;SDS011;77099;56.074;37.376;2024-03-08T09:26:32;2.50;;;0.63;;
70951;SDS011;77099;56.074;37.376;2024-03-08T09:28:58;2.13;;;0.65;;
70951;SDS011;77099;56.074;37.376;2024-03-08T09:31:25;3.13;;;0.70;;
70951;SDS011;77099;56.074;37.376;2024-03-08T09:33:51;1.98;;;0.50;;
70951;SDS011;77099;56.074;37.376;2024-03-08T09:36:17;2.13;;;0.57;;
70951;SDS011;77099;56.074;37.376;2024-03-08T09:38:43;2.33;;;0.75;;
70951;SDS011;77099;56.074;37.376;2024-03-08T09:41:09;1.70;;;0.50;;
70951;SDS011;77099;56.074;37.376;2024-03-08T09:43:36;1.90;;;0.32;;
70951;SDS011;77099;56.074;37.376;2024-03-08T09:46:02;2.33;;;0.50;;
70951;SDS011;77099;56.074;37.376;2024-03-08T09:48:31;2.43;;;0.57;;
70951;SDS011;77099;56.074;37.376;2024-03-08T09:50:57;1.40;;;0.40;;
70951;SDS011;77099;56.074;37.376;2024-03-08T09:53:23;3.38;;;0.80;;
70951;SDS011;77099;56.074;37.376;2024-03-08T09:55:49;2.17;;;0.30;;
70951;SDS011;77099;56.074;37.376;2024-03-08T09:58:15;2.50;;;0.70;;
70951;SDS011;77099;56.074;37.376;2024-03-08T10:00:52;2.33;;;0.63;;
70951;SDS011;77099;56.074;37.376;2024-03-08T10:03:19;2.83;;;0.63;;
70951;SDS011;77099;56.074;37.376;2024-03-08T10:05:45;2.65;;;0.60;;
70951;SDS011;77099;56.074;37.376;2024-03-08T10:08:11;3.08;;;0.73;;
70951;SDS011;77099;56.074;37.376;2024-03-08T10:10:38;2.33;;;0.63;;
70951;SDS011;77099;56.074;37.376;2024-03-08T10:13:07;2.07;;;0.77;;
70951;SDS011;77099;56.074;37.376;2024-03-08T10:15:35;2.05;;;0.40;;
70951;SDS011;77099;56.074;37.376;2024-03-08T10:18:01;1.65;;;0.45;;
70951;SDS011;77099;56.074;37.376;2024-03-08T10:20:28;2.38;;;0.52;;
70951;SDS011;77099;56.074;37.376;2024-03-08T10:23:02;2.22;;;0.77;;
70951;SDS011;77099;56.074;37.376;2024-03-08T10:25:33;2.23;;;0.67;;
70951;SDS011;77099;56.074;37.376;2024-03-08T10:28:00;1.95;;;0.63;;
70951;SDS011;77099;56.074;37.376;2024-03-08T10:30:29;2.17;;;0.63;;
70951;SDS011;77099;56.074;37.376;2024-03-08T10:32:55;3.30;;;1.10;;
70951;SDS011;77099;56.074;37.376;2024-03-08T10:35:21;3.43;;;1.07;;
70951;SDS011;77099;56.074;37.376;2024-03-08T10:37:48;3.00;;;0.95;;
70951;SDS011;77099;56.074;37.376;2024-03-08T10:40:22;2.85;;;0.65;;
70951;SDS011;77099;56.074;37.376;2024-03-08T10:42:54;2.50;;;0.90;;
70951;SDS011;77099;56.074;37.376;2024-03-08T10:51:03;3.88;;;0.98;;
70951;SDS011;77099;56.074;37.376;2024-03-08T10:53:30;3.75;;;0.63;;
70951;SDS011;77099;56.074;37.376;2024-03-08T10:55:56;2.35;;;0.52;;
70951;SDS011;77099;56.074;37.376;2024-03-08T10:58:28;1.60;;;0.53;;
70951;SDS011;77099;56.074;37.376;2024-03-08T11:00:55;4.28;;;1.00;;
70951;SDS011;77099;56.074;37.376;2024-03-08T11:09:00;2.75;;;0.95;;
70951;SDS011;77099;56.074;37.376;2024-03-08T11:11:29;3.13;;;0.80;;
70951;SDS011;77099;56.074;37.376;2024-03-08T11:13:57;3.58;;;1.20;;
70951;SDS011;77099;56.074;37.376;2024-03-08T11:18:54;3.78;;;1.42;;
70951;SDS011;77099;56.074;37.376;2024-03-08T11:21:25;3.92;;;1.30;;
70951;SDS011;77099;56.074;37.376;2024-03-08T11:24:01;2.50;;;0.90;;
70951;SDS011;77099;56.074;37.376;2024-03-08T11:26:31;4.20;;;1.50;;
70951;SDS011;77099;56.074;37.376;2024-03-08T11:34:47;3.80;;;1.35;;
70951;SDS011;77099;56.074;37.376;2024-03-08T11:37:18;4.33;;;1.30;;
70951;SDS011;77099;56.074;37.376;2024-03-08T11:39:50;3.20;;;1.20;;
70951;SDS011;77099;56.074;37.376;2024-03-08T11:42:17;3.80;;;1.17;;
70951;SDS011;77099;56.074;37.376;2024-03-08T11:44:45;4.18;;;1.35;;
70951;SDS011;77099;56.074;37.376;2024-03-08T11:47:11;4.68;;;1.70;;
70951;SDS011;77099;56.074;37.376;2024-03-08T11:49:37;4.73;;;1.30;;
70951;SDS011;77099;56.074;37.376;2024-03-08T11:52:04;4.60;;;1.70;;
70951;SDS011;77099;56.074;37.376;2024-03-08T11:54:30;4.70;;;1.42;;
70951;SDS011;77099;56.074;37.376;2024-03-08T11:56:56;4.47;;;1.10;;
70951;SDS011;77099;56.074;37.376;2024-03-08T11:59:29;2.53;;;0.80;;
70951;SDS011;77099;56.074;37.376;2024-03-08T12:02:05;3.33;;;1.15;;
70951;SDS011;77099;56.074;37.376;2024-03-08T12:04:32;2.88;;;0.93;;
70951;SDS011;77099;56.074;37.376;2024-03-08T12:07:01;3.63;;;0.98;;
70951;SDS011;77099;56.074;37.376;2024-03-08T12:09:34;4.05;;;1.13;;
70951;SDS011;77099;56.074;37.376;2024-03-08T12:12:02;2.83;;;1.00;;
70951;SDS011;77099;56.074;37.376;2024-03-08T12:14:29;4.63;;;1.42;;
70951;SDS011;77099;56.074;37.376;2024-03-08T12:16:57;3.60;;;1.38;;
70951;SDS011;77099;56.074;37.376;2024-03-08T12:19:22;2.80;;;1.00;;
70951;SDS011;77099;56.074;37.376;2024-03-08T12:21:48;2.83;;;1.07;;
70951;SDS011;77099;56.074;37.376;2024-03-08T12:24:15;3.60;;;1.35;;
70951;SDS011;77099;56.074;37.376;2024-03-08T12:26:45;3.45;;;0.93;;
70951;SDS011;77099;56.074;37.376;2024-03-08T12:31:59;3.05;;;1.02;;
70951;SDS011;77099;56.074;37.376;2024-03-08T12:34:26;4.60;;;1.35;;
70951;SDS011;77099;56.074;37.376;2024-03-08T12:36:53;6.18;;;1.80;;
70951;SDS011;77099;56.074;37.376;2024-03-08T12:39:22;4.53;;;1.38;;
70951;SDS011;77099;56.074;37.376;2024-03-08T12:41:54;3.60;;;1.10;;
70951;SDS011;77099;56.074;37.376;2024-03-08T12:44:22;4.55;;;1.60;;
70951;SDS011;77099;56.074;37.376;2024-03-08T12:46:47;2.08;;;0.80;;
70951;SDS011;77099;56.074;37.376;2024-03-08T12:49:13;2.37;;;0.67;;
70951;SDS011;77099;56.074;37.376;2024-03-08T12:51:43;2.33;;;0.70;;
70951;SDS011;77099;56.074;37.376;2024-03-08T12:54:09;2.85;;;0.70;;
70951;SDS011;77099;56.074;37.376;2024-03-08T12:56:35;2.28;;;0.68;;
70951;SDS011;77099;56.074;37.376;2024-03-08T12:59:06;3.00;;;0.80;;
70951;SDS011;77099;56.074;37.376;2024-03-08T13:01:33;2.53;;;0.55;;
70951;SDS011;77099;56.074;37.376;2024-03-08T13:04:02;2.47;;;0.63;;
70951;SDS011;77099;56.074;37.376;2024-03-08T13:06:28;2.95;;;0.65;;
70951;SDS011;77099;56.074;37.376;2024-03-08T13:08:56;2.17;;;0.47;;
70951;SDS011;77099;56.074;37.376;2024-03-08T13:11:24;2.23;;;0.53;;
70951;SDS011;77099;56.074;37.376;2024-03-08T13:13:51;2.05;;;0.60;;
70951;SDS011;77099;56.074;37.376;2024-03-08T13:16:17;3.70;;;0.82;;
70951;SDS011;77099;56.074;37.376;2024-03-08T13:18:44;2.55;;;0.65;;
70951;SDS011;77099;56.074;37.376;2024-03-08T13:21:14;1.15;;;0.35;;
70951;SDS011;77099;56.074;37.376;2024-03-08T13:23:42;3.70;;;0.93;;
70951;SDS011;77099;56.074;37.376;2024-03-08T13:26:18;2.72;;;0.63;;
70951;SDS011;77099;56.074;37.376;2024-03-08T13:28:47;2.13;;;0.60;;
70951;SDS011;77099;56.074;37.376;2024-03-08T13:31:20;2.75;;;0.60;;
70951;SDS011;77099;56.074;37.376;2024-03-08T13:33:46;2.80;;;0.60;;
70951;SDS011;77099;56.074;37.376;2024-03-08T13:36:12;2.30;;;0.52;;
70951;SDS011;77099;56.074;37.376;2024-03-08T13:38:44;3.22;;;0.98;;
70951;SDS011;77099;56.074;37.376;2024-03-08T13:41:13;3.13;;;0.85;;
70951;SDS011;77099;56.074;37.376;2024-03-08T13:43:43;2.33;;;0.50;;
70951;SDS011;77099;56.074;37.376;2024-03-08T13:46:11;3.20;;;0.73;;
70951;SDS011;77099;56.074;37.376;2024-03-08T13:48:37;2.35;;;0.82;;
70951;SDS011;77099;56.074;37.376;2024-03-08T13:51:06;5.18;;;0.90;;
70951;SDS011;77099;56.074;37.376;2024-03-08T13:53:33;2.80;;;0.82;;
70951;SDS011;77099;56.074;37.376;2024-03-08T13:56:02;1.33;;;0.30;;
70951;SDS011;77099;56.074;37.376;2024-03-08T13:58:28;2.13;;;0.55;;
70951;SDS011;77099;56.074;37.376;2024-03-08T14:00:54;2.22;;;0.77;;
70951;SDS011;77099;56.074;37.376;2024-03-08T14:03:20;3.20;;;0.93;;
70951;SDS011;77099;56.074;37.376;2024-03-08T14:05:46;2.90;;;0.77;;
70951;SDS011;77099;56.074;37.376;2024-03-08T14:08:12;3.45;;;0.88;;
70951;SDS011;77099;56.074;37.376;2024-03-08T14:10:39;1.35;;;0.50;;
70951;SDS011;77099;56.074;37.376;2024-03-08T14:13:05;2.40;;;0.70;;
70951;SDS011;77099;56.074;37.376;2024-03-08T14:15:32;1.77;;;0.40;;
70951;SDS011;77099;56.074;37.376;2024-03-08T14:17:58;2.78;;;0.77;;
70951;SDS011;77099;56.074;37.376;2024-03-08T14:20:24;3.08;;;0.80;;
70951;SDS011;77099;56.074;37.376;2024-03-08T14:22:56;1.87;;;0.30;;
70951;SDS011;77099;56.074;37.376;2024-03-08T14:25:25;1.70;;;0.40;;
70951;SDS011;77099;56.074;37.376;2024-03-08T14:27:52;3.15;;;0.60;;
70951;SDS011;77099;56.074;37.376;2024-03-08T14:30:27;3.15;;;0.68;;
70951;SDS011;77099;56.074;37.376;2024-03-08T14:33:06;2.70;;;0.85;;
70951;SDS011;77099;56.074;37.376;2024-03-08T14:35:34;2.10;;;0.57;;
70951;SDS011;77099;56.074;37.376;2024-03-08T14:38:01;2.42;;;0.55;;
70951;SDS011;77099;56.074;37.376;2024-03-08T14:40:27;4.18;;;0.63;;
70951;SDS011;77099;56.074;37.376;2024-03-08T14:42:53;2.75;;;0.70;;
70951;SDS011;77099;56.074;37.376;2024-03-08T14:45:19;2.30;;;0.50;;
70951;SDS011;77099;56.074;37.376;2024-03-08T14:47:46;3.35;;;0.60;;
70951;SDS011;77099;56.074;37.376;2024-03-08T14:50:18;2.83;;;0.65;;
70951;SDS011;77099;56.074;37.376;2024-03-08T14:52:45;3.05;;;0.65;;
70951;SDS011;77099;56.074;37.376;2024-03-08T14:55:17;2.63;;;0.45;;